createdAt,value
2018-05-31T00:01:57.293Z,18.87
2018-05-31T00:04:23.437Z,18.90
2018-05-31T00:06:49.461Z,18.93
2018-05-31T00:09:15.560Z,18.99
2018-05-31T00:11:41.789Z,19.02
2018-05-31T00:14:07.821Z,18.96
2018-05-31T00:16:33.857Z,18.99
2018-05-31T00:18:59.878Z,18.95
2018-05-31T00:21:25.900Z,18.92
2018-05-31T00:23:51.925Z,18.88
2018-05-31T00:26:17.934Z,18.94
2018-05-31T00:28:43.957Z,18.93
2018-05-31T00:31:09.996Z,18.93
2018-05-31T00:33:36.017Z,18.89
2018-05-31T00:36:02.037Z,18.81
2018-05-31T00:38:28.071Z,18.77
2018-05-31T00:40:54.082Z,18.81
2018-05-31T00:43:20.109Z,18.79
2018-05-31T00:45:46.174Z,18.76
2018-05-31T00:48:12.198Z,18.80
2018-05-31T00:50:38.231Z,18.80
2018-05-31T00:53:04.262Z,18.76
2018-05-31T00:55:42.733Z,18.77
2018-05-31T00:58:12.051Z,18.74
2018-05-31T01:00:38.116Z,18.70
2018-05-31T01:03:04.138Z,18.67
2018-05-31T01:05:30.190Z,18.68
2018-05-31T01:07:56.238Z,18.64
2018-05-31T01:10:22.267Z,18.60
2018-05-31T01:12:48.324Z,18.61
2018-05-31T01:15:14.696Z,18.63
2018-05-31T01:17:41.061Z,18.59
2018-05-31T01:20:07.404Z,18.56
2018-05-31T01:22:33.433Z,18.53
2018-05-31T01:24:59.491Z,18.54
2018-05-31T01:27:25.536Z,18.55
2018-05-31T01:29:51.578Z,18.53
2018-05-31T01:32:17.615Z,18.56
2018-05-31T01:34:43.638Z,18.59
2018-05-31T01:37:09.884Z,18.63
2018-05-31T01:39:35.962Z,18.65
2018-05-31T01:42:02.011Z,18.67
2018-05-31T01:44:28.369Z,18.67
2018-05-31T01:46:57.152Z,18.68
2018-05-31T01:49:23.184Z,18.69
2018-05-31T01:51:49.254Z,18.68
2018-05-31T01:54:15.327Z,18.70
2018-05-31T01:56:41.350Z,18.73
2018-05-31T01:59:07.407Z,18.77
2018-05-31T02:01:33.586Z,18.80
2018-05-31T02:03:59.630Z,18.77
2018-05-31T02:06:25.712Z,18.77
2018-05-31T02:08:51.735Z,18.86
2018-05-31T02:11:17.785Z,18.89
2018-05-31T02:13:43.789Z,18.88
2018-05-31T02:16:09.800Z,18.86
2018-05-31T02:18:35.852Z,18.82
2018-05-31T02:21:01.894Z,18.84
2018-05-31T02:23:27.939Z,18.82
2018-05-31T02:25:53.961Z,18.81
2018-05-31T02:28:20.015Z,18.77
2018-05-31T02:30:46.044Z,18.77
2018-05-31T02:33:12.062Z,18.76
2018-05-31T02:35:38.062Z,18.75
2018-05-31T02:38:04.106Z,18.72
2018-05-31T02:40:30.111Z,18.78
2018-05-31T02:42:56.135Z,18.84
2018-05-31T02:45:23.655Z,18.85
2018-05-31T02:47:49.693Z,18.85
2018-05-31T02:50:15.716Z,18.82
2018-05-31T02:52:41.803Z,18.76
2018-05-31T02:55:07.865Z,18.74
2018-05-31T02:57:33.884Z,18.74
2018-05-31T02:59:59.941Z,18.73
2018-05-31T03:02:25.963Z,18.77
2018-05-31T03:04:52.000Z,18.81
2018-05-31T03:07:18.030Z,18.81
2018-05-31T03:09:44.052Z,18.78
2018-05-31T03:12:10.144Z,18.75
2018-05-31T03:14:36.147Z,18.71
2018-05-31T03:17:02.133Z,18.74
2018-05-31T03:19:28.156Z,18.76
2018-05-31T03:21:54.169Z,18.78
2018-05-31T03:24:20.186Z,18.74
2018-05-31T03:26:46.263Z,18.71
2018-05-31T03:29:12.285Z,18.77
2018-05-31T03:31:38.297Z,18.60
2018-05-31T03:34:04.357Z,18.72
2018-05-31T03:36:30.399Z,18.80
2018-05-31T03:38:56.430Z,18.75
2018-05-31T03:41:22.464Z,18.78
2018-05-31T03:43:48.569Z,18.72
2018-05-31T03:46:14.647Z,18.81
2018-05-31T03:48:40.674Z,18.79
2018-05-31T03:51:06.782Z,18.83
2018-05-31T03:53:32.847Z,18.85
2018-05-31T03:55:58.892Z,18.86
2018-05-31T03:58:25.090Z,18.94
2018-05-31T04:00:51.258Z,18.94
2018-05-31T04:03:17.344Z,18.97
2018-05-31T04:05:43.363Z,18.94
2018-05-31T04:08:09.398Z,18.92
2018-05-31T04:10:36.221Z,18.97
2018-05-31T04:13:02.251Z,18.98
2018-05-31T04:15:28.921Z,18.88
2018-05-31T04:17:55.211Z,18.98
2018-05-31T04:20:21.343Z,19.11
2018-05-31T04:22:47.457Z,19.14
2018-05-31T04:25:13.485Z,19.16
2018-05-31T04:27:46.537Z,19.19
2018-05-31T04:30:12.701Z,19.14
2018-05-31T04:32:38.837Z,19.25
2018-05-31T04:35:05.370Z,19.30
2018-05-31T04:37:31.654Z,19.31
2018-05-31T04:39:57.676Z,19.25
2018-05-31T04:42:23.759Z,19.35
2018-05-31T04:44:49.823Z,19.32
2018-05-31T04:47:15.906Z,19.37
2018-05-31T04:49:41.995Z,19.40
2018-05-31T04:52:08.041Z,19.29
2018-05-31T04:54:34.087Z,19.34
2018-05-31T04:57:00.134Z,19.32
2018-05-31T04:59:26.297Z,19.32
2018-05-31T05:01:52.520Z,19.43
2018-05-31T05:04:18.567Z,19.44
2018-05-31T05:06:44.583Z,19.43
2018-05-31T05:09:10.602Z,19.48
2018-05-31T05:11:36.712Z,19.58
2018-05-31T05:14:02.855Z,19.67
2018-05-31T05:16:29.173Z,19.76
2018-05-31T05:18:55.423Z,19.89
2018-05-31T05:21:21.430Z,20.08
2018-05-31T05:23:47.487Z,20.05
2018-05-31T05:26:13.669Z,20.12
2018-05-31T05:28:39.702Z,20.12
2018-05-31T05:31:05.768Z,20.15
2018-05-31T05:33:31.786Z,20.17
2018-05-31T05:35:57.894Z,20.22
2018-05-31T05:38:23.916Z,20.26
2018-05-31T05:40:49.948Z,20.16
2018-05-31T05:43:15.991Z,20.30
2018-05-31T05:45:42.036Z,20.29
2018-05-31T05:48:08.142Z,20.47
2018-05-31T05:50:34.201Z,20.63
2018-05-31T05:53:00.250Z,20.60
2018-05-31T05:55:26.355Z,20.74
2018-05-31T05:57:52.358Z,20.70
2018-05-31T06:00:18.429Z,20.71
2018-05-31T06:02:44.450Z,20.82
2018-05-31T06:05:10.522Z,20.62
2018-05-31T06:07:36.572Z,20.56
2018-05-31T06:10:02.731Z,20.68
2018-05-31T06:12:29.211Z,20.78
2018-05-31T06:14:55.334Z,20.86
2018-05-31T06:17:21.417Z,21.08
2018-05-31T06:19:47.465Z,21.02
2018-05-31T06:22:13.642Z,21.10
2018-05-31T06:24:39.807Z,21.18
2018-05-31T06:27:05.785Z,21.48
2018-05-31T06:29:31.814Z,21.53
2018-05-31T06:31:57.864Z,21.58
2018-05-31T06:34:23.899Z,21.50
2018-05-31T06:36:49.938Z,21.66
2018-05-31T06:39:16.018Z,21.73
2018-05-31T06:41:42.053Z,21.57
2018-05-31T06:44:08.074Z,21.97
2018-05-31T06:46:34.104Z,21.89
2018-05-31T06:49:00.106Z,22.30
2018-05-31T06:51:26.135Z,22.39
2018-05-31T06:53:52.217Z,22.72
2018-05-31T06:56:18.262Z,22.64
2018-05-31T06:58:44.282Z,22.75
2018-05-31T07:01:10.330Z,22.78
2018-05-31T07:03:36.428Z,23.08
2018-05-31T07:06:02.498Z,23.15
2018-05-31T07:08:28.503Z,23.38
2018-05-31T07:10:54.530Z,23.54
2018-05-31T07:13:20.575Z,23.33
2018-05-31T07:15:46.910Z,23.56
2018-05-31T07:18:13.054Z,23.43
2018-05-31T07:20:39.078Z,23.26
2018-05-31T07:23:05.148Z,23.30
2018-05-31T07:25:31.235Z,23.15
2018-05-31T07:27:57.354Z,23.17
2018-05-31T07:30:23.395Z,22.99
2018-05-31T07:32:49.482Z,23.20
2018-05-31T07:35:15.565Z,23.08
2018-05-31T07:37:41.670Z,23.08
2018-05-31T07:40:07.700Z,23.11
2018-05-31T07:42:33.763Z,23.33
2018-05-31T07:44:59.834Z,23.47
2018-05-31T07:47:25.862Z,23.58
2018-05-31T07:49:51.914Z,23.67
2018-05-31T07:52:17.979Z,23.60
2018-05-31T07:54:44.008Z,23.62
2018-05-31T07:57:10.028Z,23.96
2018-05-31T07:59:36.053Z,23.76
2018-05-31T08:02:02.113Z,23.59
2018-05-31T08:04:28.990Z,23.36
2018-05-31T08:06:55.229Z,22.93
2018-05-31T08:09:21.444Z,22.98
2018-05-31T08:11:47.450Z,22.98
2018-05-31T08:14:13.484Z,22.92
2018-05-31T08:16:40.487Z,23.06
2018-05-31T08:19:06.509Z,23.14
2018-05-31T08:21:32.531Z,23.15
2018-05-31T08:23:58.553Z,23.24
2018-05-31T08:26:24.621Z,23.23
2018-05-31T08:28:51.036Z,23.10
2018-05-31T08:31:17.199Z,23.18
2018-05-31T08:33:43.390Z,23.04
2018-05-31T08:36:09.405Z,23.24
2018-05-31T08:38:35.429Z,23.23
2018-05-31T08:41:01.545Z,22.81
2018-05-31T08:43:27.694Z,22.81
2018-05-31T08:45:53.718Z,22.99
2018-05-31T08:48:19.750Z,23.18
2018-05-31T08:50:45.795Z,22.89
2018-05-31T08:53:11.825Z,22.60
2018-05-31T08:55:37.857Z,22.52
2018-05-31T08:58:03.897Z,22.07
2018-05-31T09:00:30.086Z,21.83
2018-05-31T09:02:56.101Z,21.07
2018-05-31T09:05:22.132Z,19.60
2018-05-31T09:44:32.378Z,18.21
2018-05-31T09:46:58.412Z,18.11
2018-05-31T09:49:24.445Z,18.05
2018-05-31T09:51:50.427Z,18.06
2018-05-31T09:54:16.985Z,18.06
2018-05-31T09:56:43.059Z,18.09
2018-05-31T09:59:09.059Z,18.12
2018-05-31T10:01:35.118Z,18.08
2018-05-31T10:04:01.151Z,17.83
2018-05-31T10:06:27.139Z,17.86
2018-05-31T10:08:53.271Z,17.92
2018-05-31T10:11:19.294Z,18.18
2018-05-31T10:13:45.402Z,18.37
2018-05-31T10:16:12.029Z,18.44
2018-05-31T10:18:38.013Z,18.49
2018-05-31T10:21:04.000Z,18.65
2018-05-31T10:23:30.003Z,18.92
2018-05-31T10:25:55.946Z,19.00
2018-05-31T10:28:21.927Z,18.91
2018-05-31T10:30:47.935Z,19.07
2018-05-31T10:33:13.962Z,19.10
2018-05-31T10:35:39.987Z,19.22
2018-05-31T10:38:05.978Z,19.16
2018-05-31T10:40:32.020Z,19.17
2018-05-31T10:42:58.055Z,18.93
2018-05-31T10:45:24.029Z,19.09
2018-05-31T10:47:50.066Z,19.27
2018-05-31T10:50:16.104Z,19.39
2018-05-31T10:52:42.202Z,19.25
2018-05-31T10:55:08.214Z,19.33
2018-05-31T10:57:34.266Z,19.27
2018-05-31T11:00:00.247Z,19.14
2018-05-31T11:02:26.241Z,18.99
2018-05-31T11:04:52.240Z,18.79
2018-05-31T11:07:18.255Z,18.85
2018-05-31T11:09:44.270Z,18.96
2018-05-31T11:12:10.262Z,19.09
2018-05-31T11:14:36.237Z,19.08
2018-05-31T11:17:02.240Z,19.10
2018-05-31T11:19:28.229Z,18.99
2018-05-31T11:21:54.257Z,19.52
2018-05-31T11:24:20.275Z,19.81
2018-05-31T11:26:46.270Z,20.30
2018-05-31T11:29:12.277Z,20.61
2018-05-31T11:31:38.213Z,21.88
2018-05-31T11:34:04.253Z,22.29
2018-05-31T11:36:30.389Z,21.84
2018-05-31T11:38:56.457Z,21.54
2018-05-31T11:41:22.422Z,21.44
2018-05-31T11:43:48.397Z,21.60
2018-05-31T11:46:14.394Z,22.09
2018-05-31T11:48:40.402Z,22.84
2018-05-31T11:51:06.397Z,23.06
2018-05-31T11:53:32.451Z,22.38
2018-05-31T11:55:58.470Z,21.84
2018-05-31T11:58:24.462Z,22.23
2018-05-31T12:00:50.490Z,22.61
2018-05-31T12:03:16.483Z,22.38
2018-05-31T12:05:42.452Z,23.17
2018-05-31T12:08:08.518Z,23.70
2018-05-31T12:10:34.569Z,23.42
2018-05-31T12:13:00.580Z,24.15
2018-05-31T12:15:26.553Z,24.27
2018-05-31T12:17:52.573Z,24.64
2018-05-31T12:20:18.576Z,25.16
2018-05-31T12:22:44.612Z,25.60
2018-05-31T12:25:10.645Z,26.44
2018-05-31T12:27:36.974Z,26.53
2018-05-31T12:30:03.100Z,27.22
2018-05-31T12:32:29.114Z,25.45
2018-05-31T12:34:55.142Z,25.95
2018-05-31T12:37:21.257Z,25.97
2018-05-31T12:39:47.299Z,26.24
2018-05-31T12:42:13.311Z,26.30
2018-05-31T12:44:39.300Z,26.51
2018-05-31T12:47:05.437Z,27.30
2018-05-31T12:49:31.973Z,26.64
2018-05-31T12:51:57.977Z,27.12
2018-05-31T12:54:23.975Z,27.59
2018-05-31T12:56:49.970Z,28.21
2018-05-31T12:59:15.971Z,27.75
2018-05-31T13:01:41.981Z,27.72
2018-05-31T13:04:08.001Z,27.47
2018-05-31T13:06:33.997Z,27.83
2018-05-31T13:09:00.018Z,28.22
2018-05-31T13:14:02.156Z,26.58
2018-05-31T13:19:01.620Z,31.18
2018-05-31T13:21:27.705Z,31.23
2018-05-31T13:23:53.833Z,32.73
2018-05-31T13:26:20.025Z,32.39
2018-05-31T13:28:46.051Z,30.99
2018-05-31T13:31:12.110Z,32.22
2018-05-31T13:33:38.164Z,32.06
2018-05-31T13:36:04.213Z,32.39
2018-05-31T13:38:30.232Z,31.48
2018-05-31T13:40:56.238Z,32.03
2018-05-31T13:43:22.262Z,32.53
2018-05-31T13:45:48.304Z,31.45
2018-05-31T13:48:14.462Z,30.77
2018-05-31T13:50:40.518Z,30.76
2018-05-31T13:53:06.544Z,31.67
2018-05-31T13:55:32.570Z,31.77
2018-05-31T13:57:58.626Z,29.78
2018-05-31T14:00:24.720Z,30.56
2018-05-31T14:02:50.756Z,32.14
2018-05-31T14:05:16.810Z,31.18
2018-05-31T14:07:42.999Z,32.55
2018-05-31T14:10:09.051Z,31.75
2018-05-31T14:12:35.158Z,32.12
2018-05-31T14:15:01.217Z,31.23
2018-05-31T14:17:27.341Z,31.67
2018-05-31T14:19:53.500Z,32.11
2018-05-31T14:22:20.332Z,32.22
2018-05-31T14:24:46.420Z,32.62
2018-05-31T14:27:12.716Z,32.87
2018-05-31T14:29:38.758Z,33.61
2018-05-31T14:32:04.791Z,33.38
2018-05-31T14:34:30.906Z,33.26
2018-05-31T14:36:56.966Z,33.05
2018-05-31T14:39:23.023Z,33.27
2018-05-31T14:41:50.158Z,33.04
2018-05-31T14:44:16.266Z,33.39
2018-05-31T14:46:42.287Z,32.82
2018-05-31T14:49:08.364Z,32.66
2018-05-31T14:51:34.360Z,33.27
2018-05-31T14:54:00.574Z,33.13
2018-05-31T14:56:26.621Z,32.79
2018-05-31T14:58:52.657Z,32.47
2018-05-31T15:01:18.668Z,32.80
2018-05-31T15:03:44.739Z,33.20
2018-05-31T15:06:10.816Z,31.88
2018-05-31T15:08:36.846Z,31.81
2018-05-31T15:11:02.865Z,32.58
2018-05-31T15:13:29.133Z,32.49
2018-05-31T15:15:55.658Z,31.74
2018-05-31T15:18:29.006Z,32.31
2018-05-31T15:20:55.060Z,33.23
2018-05-31T15:23:21.103Z,31.56
2018-05-31T15:25:47.399Z,30.32
2018-05-31T15:28:13.560Z,29.11
2018-05-31T15:30:39.783Z,30.53
2018-05-31T15:33:05.832Z,31.76
2018-05-31T15:35:31.893Z,30.86
2018-05-31T15:37:58.002Z,31.11
2018-05-31T15:40:24.027Z,31.55
2018-05-31T15:42:50.087Z,31.55
2018-05-31T15:45:16.130Z,31.36
2018-05-31T15:47:42.186Z,31.33
2018-05-31T15:50:08.222Z,31.38
2018-05-31T15:52:34.531Z,31.15
2018-05-31T15:55:00.575Z,30.88
2018-05-31T15:57:26.571Z,30.20
2018-05-31T15:59:52.593Z,29.73
2018-05-31T16:02:18.620Z,29.15
2018-05-31T16:04:44.699Z,30.42
2018-05-31T16:07:10.736Z,30.63
2018-05-31T16:09:36.758Z,30.52
2018-05-31T16:12:03.631Z,29.68
2018-05-31T16:14:29.730Z,28.58
2018-05-31T16:16:55.756Z,28.55
2018-05-31T16:19:22.769Z,28.20
2018-05-31T16:21:48.973Z,27.81
2018-05-31T16:24:15.189Z,27.34
2018-05-31T16:26:41.225Z,26.98
2018-05-31T16:29:07.253Z,26.97
2018-05-31T16:31:33.359Z,26.64
2018-05-31T16:33:59.459Z,26.67
2018-05-31T16:36:25.530Z,26.15
2018-05-31T16:38:51.590Z,26.20
2018-05-31T16:41:17.641Z,25.88
2018-05-31T16:43:43.910Z,25.65
2018-05-31T16:46:09.890Z,25.63
2018-05-31T16:48:36.063Z,25.66
2018-05-31T16:51:02.092Z,25.69
2018-05-31T16:53:28.179Z,25.46
2018-05-31T16:55:54.187Z,25.39
2018-05-31T16:58:20.192Z,25.32
2018-05-31T17:00:46.202Z,25.21
2018-05-31T17:03:12.228Z,25.40
2018-05-31T17:05:38.271Z,24.98
2018-05-31T17:08:04.330Z,25.02
2018-05-31T17:10:30.331Z,25.24
2018-05-31T17:12:56.416Z,25.27
2018-05-31T17:15:22.441Z,25.13
2018-05-31T17:17:48.434Z,25.07
2018-05-31T17:20:14.499Z,24.77
2018-05-31T17:22:40.564Z,24.81
2018-05-31T17:25:06.573Z,24.80
2018-05-31T17:27:32.606Z,24.64
2018-05-31T17:29:58.611Z,24.68
2018-05-31T17:32:24.618Z,24.85
2018-05-31T17:34:50.625Z,24.62
2018-05-31T17:37:16.627Z,24.67
2018-05-31T17:39:42.638Z,24.60
2018-05-31T17:42:08.661Z,24.75
2018-05-31T17:44:34.830Z,24.79
2018-05-31T17:47:00.846Z,24.82
2018-05-31T17:49:26.836Z,24.59
2018-05-31T17:51:53.127Z,24.65
2018-05-31T17:54:19.378Z,24.64
2018-05-31T17:56:45.406Z,24.65
2018-05-31T17:59:11.877Z,24.56
2018-05-31T18:01:37.919Z,24.29
2018-05-31T18:04:03.940Z,24.30
2018-05-31T18:06:30.482Z,24.23
2018-05-31T18:08:56.520Z,24.26
2018-05-31T18:11:22.552Z,24.12
2018-05-31T18:13:48.580Z,23.98
2018-05-31T18:16:14.672Z,24.07
2018-05-31T18:18:40.736Z,24.06
2018-05-31T18:21:06.794Z,23.95
2018-05-31T18:23:33.464Z,23.93
2018-05-31T18:25:59.637Z,23.93
2018-05-31T18:28:26.549Z,23.83
2018-05-31T18:30:52.583Z,23.79
2018-05-31T18:33:18.599Z,23.53
2018-05-31T18:35:44.639Z,23.40
2018-05-31T18:38:10.682Z,23.36
2018-05-31T18:40:36.770Z,23.36
2018-05-31T18:47:35.929Z,23.20
2018-05-31T18:50:01.962Z,23.07
2018-05-31T18:52:28.008Z,23.06
2018-05-31T18:54:54.078Z,22.92
2018-05-31T18:57:20.115Z,22.97
2018-05-31T18:59:46.169Z,23.00
2018-05-31T19:02:12.378Z,22.95
2018-05-31T19:04:38.694Z,22.88
2018-05-31T19:07:04.724Z,22.82
2018-05-31T19:09:33.894Z,22.89
2018-05-31T19:12:00.024Z,22.77
2018-05-31T19:14:26.123Z,22.78
2018-05-31T19:16:52.171Z,22.73
2018-05-31T19:19:24.200Z,22.71
2018-05-31T19:21:50.280Z,22.66
2018-05-31T19:24:22.337Z,22.63
2018-05-31T19:26:48.403Z,22.57
2018-05-31T19:29:14.482Z,22.50
2018-05-31T19:31:40.510Z,22.43
2018-05-31T19:34:06.550Z,22.37
2018-05-31T19:36:38.722Z,22.32
2018-05-31T19:39:04.893Z,22.25
2018-05-31T19:41:31.022Z,22.18
2018-05-31T19:44:03.022Z,22.06
2018-05-31T19:46:29.091Z,22.02
2018-05-31T19:48:55.102Z,21.98
2018-05-31T19:51:27.203Z,21.93
2018-05-31T19:53:53.294Z,21.88
2018-05-31T19:56:19.385Z,21.82
2018-05-31T19:58:51.804Z,21.77
2018-05-31T20:01:23.971Z,21.74
2018-05-31T20:03:50.089Z,21.66
2018-05-31T20:06:16.183Z,21.61
2018-05-31T20:08:42.226Z,21.49
2018-05-31T20:11:08.291Z,21.39
2018-05-31T20:13:34.325Z,21.25
2018-05-31T20:16:00.359Z,21.16
2018-05-31T20:18:26.402Z,20.90
2018-05-31T20:20:52.514Z,20.97
2018-05-31T20:23:18.526Z,20.94
2018-05-31T20:25:44.523Z,20.76
2018-05-31T20:28:10.661Z,20.62
2018-05-31T20:30:36.719Z,20.56
2018-05-31T20:33:02.722Z,20.55
2018-05-31T20:35:28.729Z,20.57
2018-05-31T20:37:54.908Z,20.48
2018-05-31T20:40:21.097Z,20.36
2018-05-31T20:42:47.410Z,20.26
2018-05-31T20:45:13.799Z,20.15
2018-05-31T20:47:39.882Z,20.16
2018-05-31T20:50:05.917Z,20.09
2018-05-31T20:52:31.963Z,20.01
2018-05-31T20:54:58.066Z,20.04
2018-05-31T20:57:24.143Z,20.03
2018-05-31T20:59:50.243Z,20.01
2018-05-31T21:02:16.237Z,19.92
2018-05-31T21:04:42.267Z,19.72
2018-05-31T21:07:08.301Z,19.77
2018-05-31T21:09:34.306Z,19.71
2018-05-31T21:12:00.322Z,19.70
2018-05-31T21:14:26.329Z,19.58
2018-05-31T21:16:52.342Z,19.61
2018-05-31T21:19:18.760Z,19.54
2018-05-31T21:21:44.808Z,19.51
2018-05-31T21:24:10.819Z,19.52
2018-05-31T21:26:36.920Z,19.42
2018-05-31T21:29:03.125Z,19.47
2018-05-31T21:31:29.325Z,19.41
2018-05-31T21:33:56.933Z,19.35
2018-05-31T21:36:23.033Z,19.32
2018-05-31T21:38:49.049Z,19.30
2018-05-31T21:41:18.773Z,19.23
2018-05-31T21:43:44.884Z,19.23
2018-05-31T21:46:11.081Z,19.17
2018-05-31T21:48:37.278Z,18.99
2018-05-31T21:51:03.299Z,18.96
2018-05-31T21:53:29.297Z,19.04
2018-05-31T21:55:56.045Z,18.97
2018-05-31T21:58:22.059Z,18.97
2018-05-31T22:00:54.136Z,18.95
2018-05-31T22:03:20.171Z,18.95
2018-05-31T22:05:46.194Z,18.86
2018-05-31T22:08:12.222Z,18.93
2018-05-31T22:10:40.866Z,18.97
2018-05-31T22:13:07.069Z,18.93
2018-05-31T22:16:42.272Z,18.97
2018-05-31T22:19:08.290Z,18.99
2018-05-31T22:21:34.306Z,18.98
2018-05-31T22:24:00.345Z,18.93
2018-05-31T22:26:26.370Z,18.95
2018-05-31T22:28:52.373Z,18.90
2018-05-31T22:31:18.411Z,18.84
2018-05-31T22:33:44.443Z,18.84
2018-05-31T22:36:10.440Z,18.88
2018-05-31T22:38:36.456Z,18.85
2018-05-31T22:41:02.496Z,18.74
2018-05-31T22:43:28.599Z,18.68
2018-05-31T22:45:54.597Z,18.63
2018-05-31T22:48:20.659Z,18.60
2018-05-31T22:50:46.701Z,18.61
2018-05-31T22:53:12.754Z,18.62
2018-05-31T22:55:38.749Z,18.42
2018-05-31T22:58:04.917Z,18.33
2018-05-31T23:00:31.549Z,18.26
2018-05-31T23:02:57.702Z,18.27
2018-05-31T23:05:24.351Z,18.16
2018-05-31T23:07:50.374Z,18.09
2018-05-31T23:10:16.405Z,18.13
2018-05-31T23:12:42.438Z,18.14
2018-05-31T23:15:08.452Z,18.12
2018-05-31T23:17:34.501Z,18.15
2018-05-31T23:20:00.530Z,18.11
2018-05-31T23:22:26.530Z,17.96
2018-05-31T23:24:52.535Z,17.81
2018-05-31T23:27:18.537Z,17.89
2018-05-31T23:29:44.563Z,17.97
2018-05-31T23:32:10.548Z,17.98
2018-05-31T23:34:36.554Z,17.91
2018-05-31T23:37:02.592Z,17.88
2018-05-31T23:39:28.599Z,17.83
2018-05-31T23:41:54.615Z,17.77
2018-05-31T23:44:20.609Z,17.79
2018-05-31T23:46:46.606Z,17.74
2018-05-31T23:49:12.605Z,17.63
2018-05-31T23:51:38.631Z,17.71
2018-05-31T23:54:04.706Z,17.66
2018-05-31T23:56:30.741Z,17.62
2018-05-31T23:58:56.737Z,17.61
